createdAt,value
2023-08-07T00:00:23.863Z,12.24
2023-08-07T00:01:23.984Z,12.30
2023-08-07T00:02:24.027Z,12.33
2023-08-07T00:03:24.193Z,12.39
2023-08-07T00:04:24.211Z,12.44
2023-08-07T00:05:24.255Z,12.46
2023-08-07T00:06:24.388Z,12.52
2023-08-07T00:07:24.462Z,12.57
2023-08-07T00:08:24.613Z,12.62
2023-08-07T00:09:24.660Z,12.63
2023-08-07T00:10:24.740Z,12.69
2023-08-07T00:11:24.809Z,12.70
2023-08-07T00:12:24.866Z,12.74
2023-08-07T00:13:24.978Z,12.77
2023-08-07T00:14:25.052Z,12.77
2023-08-07T00:15:25.129Z,12.79
2023-08-07T00:16:25.267Z,12.81
2023-08-07T00:17:25.371Z,12.81
2023-08-07T00:18:25.421Z,12.81
2023-08-07T00:19:25.500Z,12.79
2023-08-07T00:20:25.572Z,12.79
2023-08-07T00:21:25.758Z,12.81
2023-08-07T00:22:25.747Z,12.82
2023-08-07T00:23:25.832Z,12.82
2023-08-07T00:24:25.866Z,12.82
2023-08-07T00:25:25.981Z,12.84
2023-08-07T00:26:26.045Z,12.84
2023-08-07T00:27:26.149Z,12.85
2023-08-07T00:28:26.252Z,12.85
2023-08-07T00:29:26.324Z,12.85
2023-08-07T00:30:26.390Z,12.85
2023-08-07T00:31:26.563Z,12.85
2023-08-07T00:32:26.638Z,12.85
2023-08-07T00:33:26.673Z,12.82
2023-08-07T00:34:26.706Z,12.81
2023-08-07T00:35:26.818Z,12.78
2023-08-07T00:36:26.959Z,12.78
2023-08-07T00:37:27.013Z,12.79
2023-08-07T00:38:27.114Z,12.78
2023-08-07T00:39:27.188Z,12.78
2023-08-07T00:40:27.261Z,12.77
2023-08-07T00:41:27.367Z,12.75
2023-08-07T00:42:27.402Z,12.77
2023-08-07T00:43:27.520Z,12.77
2023-08-07T00:44:27.557Z,12.77
2023-08-07T00:45:27.631Z,12.78
2023-08-07T00:46:27.804Z,12.78
2023-08-07T00:47:27.846Z,12.79
2023-08-07T00:48:27.968Z,12.79
2023-08-07T00:49:28.033Z,12.79
2023-08-07T00:50:34.246Z,12.79
2023-08-07T00:51:28.160Z,12.81
2023-08-07T00:52:28.248Z,12.81
2023-08-07T00:53:28.365Z,12.81
2023-08-07T00:54:28.412Z,12.82
2023-08-07T00:55:28.504Z,12.82
2023-08-07T00:56:28.600Z,12.82
2023-08-07T00:57:28.676Z,12.85
2023-08-07T00:58:28.790Z,12.82
2023-08-07T00:59:29.061Z,12.85
2023-08-07T01:22:06.289Z,12.06
2023-08-07T01:23:07.330Z,12.08
2023-08-07T01:24:07.366Z,12.12
2023-08-07T01:25:07.439Z,12.19
2023-08-07T01:26:07.534Z,12.24
2023-08-07T01:27:07.658Z,12.30
2023-08-07T01:28:07.754Z,12.37
2023-08-07T01:29:07.788Z,12.44
2023-08-07T01:30:07.864Z,12.46
2023-08-07T01:31:07.966Z,12.51
2023-08-07T01:32:07.998Z,12.54
2023-08-07T01:33:08.112Z,12.56
2023-08-07T01:34:08.180Z,12.60
2023-08-07T01:35:08.232Z,12.60
2023-08-07T01:36:08.346Z,12.63
2023-08-07T01:37:08.480Z,12.66
2023-08-07T01:38:08.491Z,12.66
2023-08-07T01:39:08.604Z,12.67
2023-08-07T01:40:08.643Z,12.69
2023-08-07T01:41:08.727Z,12.70
2023-08-07T01:42:08.801Z,12.71
2023-08-07T01:43:08.892Z,12.71
2023-08-07T01:44:08.984Z,12.74
2023-08-07T01:45:09.059Z,12.75
2023-08-07T01:46:09.183Z,12.75
2023-08-07T01:47:09.228Z,12.77
2023-08-07T01:48:09.353Z,12.78
2023-08-07T01:49:09.433Z,12.79
2023-08-07T01:50:09.435Z,12.78
2023-08-07T01:51:09.616Z,12.79
2023-08-07T01:52:09.607Z,12.78
2023-08-07T01:53:09.810Z,12.79
2023-08-07T01:54:09.779Z,12.79
2023-08-07T01:55:09.865Z,12.81
2023-08-07T01:56:09.938Z,12.82
2023-08-07T01:57:10.070Z,12.82
2023-08-07T01:58:10.123Z,12.84
2023-08-07T02:49:17.167Z,11.71
2023-08-07T02:50:17.789Z,11.72
2023-08-07T02:51:17.922Z,11.75
2023-08-07T02:52:18.139Z,11.80
2023-08-07T02:53:18.137Z,11.86
2023-08-07T02:54:18.176Z,11.96
2023-08-07T02:55:18.267Z,12.02
2023-08-07T02:56:18.365Z,12.06
2023-08-07T03:04:26.405Z,11.96
2023-08-07T03:10:42.773Z,11.94
2023-08-07T03:11:43.776Z,11.96
2023-08-07T03:12:43.935Z,11.99
2023-08-07T03:13:43.933Z,12.02
2023-08-07T03:21:37.904Z,12.05
2023-08-07T03:22:38.906Z,12.05
2023-08-07T03:23:39.099Z,12.06
2023-08-07T03:24:39.079Z,12.09
2023-08-07T03:25:39.104Z,12.13
2023-08-07T03:26:39.169Z,12.20
2023-08-07T03:27:39.275Z,12.23
2023-08-07T03:28:39.359Z,12.27
2023-08-07T03:32:36.072Z,12.24
2023-08-07T03:33:36.848Z,12.23
2023-08-07T03:34:36.937Z,12.23
2023-08-07T03:35:36.925Z,12.26
2023-08-07T03:36:37.071Z,12.27
2023-08-07T03:37:37.112Z,12.31
2023-08-07T03:38:37.276Z,12.34
2023-08-07T03:39:37.336Z,12.38
2023-08-07T03:47:29.087Z,12.21
2023-08-07T03:48:29.894Z,12.21
2023-08-07T03:49:30.025Z,12.20
2023-08-07T03:50:30.034Z,12.24
2023-08-07T03:51:30.080Z,12.29
2023-08-07T03:52:30.130Z,12.33
2023-08-07T03:53:30.241Z,12.34
2023-08-07T03:54:30.488Z,12.38
2023-08-07T03:55:30.450Z,12.42
2023-08-07T03:56:30.482Z,12.44
2023-08-07T03:57:30.533Z,12.46
2023-08-07T03:58:30.625Z,12.48
2023-08-07T03:59:30.779Z,12.51
2023-08-07T04:00:30.755Z,12.52
2023-08-07T04:01:31.568Z,12.52
2023-08-07T04:02:31.093Z,12.56
2023-08-07T04:03:31.365Z,12.59
2023-08-07T04:04:31.143Z,12.60
2023-08-07T04:05:31.197Z,12.62
2023-08-07T04:06:31.295Z,12.63
2023-08-07T04:07:31.404Z,12.64
2023-08-07T04:08:31.442Z,12.67
2023-08-07T04:09:31.609Z,12.67
2023-08-07T04:10:31.745Z,12.70
2023-08-07T04:11:31.749Z,12.70
2023-08-07T04:12:34.578Z,12.71
2023-08-07T04:13:32.195Z,12.71
2023-08-07T04:14:39.913Z,12.74
2023-08-07T04:15:32.068Z,12.74
2023-08-07T04:16:33.025Z,12.75
2023-08-07T04:20:47.424Z,12.59
2023-08-07T04:21:48.451Z,12.54
2023-08-07T04:22:48.442Z,12.54
2023-08-07T04:23:48.440Z,12.52
2023-08-07T04:29:18.477Z,12.48
2023-08-07T04:30:19.265Z,12.46
2023-08-07T04:31:20.586Z,12.46
2023-08-07T04:36:33.422Z,12.24
2023-08-07T04:37:34.296Z,12.21
2023-08-07T04:45:16.923Z,12.04
2023-08-07T04:46:17.793Z,12.05
2023-08-07T04:47:17.841Z,12.05
2023-08-07T04:51:23.648Z,12.11
2023-08-07T04:52:26.927Z,12.09
2023-08-07T04:53:24.583Z,12.11
2023-08-07T04:54:24.601Z,12.13
2023-08-07T04:55:24.644Z,12.16
2023-08-07T04:56:24.721Z,12.21
2023-08-07T04:57:24.774Z,12.24
2023-08-07T04:58:24.868Z,12.29
2023-08-07T04:59:24.959Z,12.30
2023-08-07T05:00:25.028Z,12.33
2023-08-07T05:01:25.189Z,12.37
2023-08-07T05:02:25.336Z,12.38
2023-08-07T05:03:25.462Z,12.41
2023-08-07T05:04:25.379Z,12.45
2023-08-07T05:05:25.487Z,12.46
2023-08-07T05:06:25.560Z,12.49
2023-08-07T05:07:25.689Z,12.52
2023-08-07T08:04:30.717Z,11.83
2023-08-07T08:05:31.678Z,11.87
2023-08-07T08:06:31.756Z,11.94
2023-08-07T08:07:31.798Z,12.02
2023-08-07T08:08:31.905Z,12.08
2023-08-07T08:09:31.951Z,12.15
2023-08-07T08:10:32.075Z,12.20
2023-08-07T08:11:32.121Z,12.24
2023-08-07T08:12:32.217Z,12.26
2023-08-07T08:13:32.417Z,12.31
2023-08-07T08:14:40.249Z,12.37
2023-08-07T08:15:32.491Z,12.38
2023-08-07T08:16:32.700Z,12.44
2023-08-07T08:17:32.676Z,12.46
2023-08-07T08:18:32.704Z,12.51
2023-08-07T08:19:45.428Z,12.54
2023-08-07T08:20:32.944Z,12.59
2023-08-07T08:21:32.926Z,12.63
2023-08-07T08:22:33.050Z,12.66
2023-08-07T08:23:33.126Z,12.69
2023-08-07T08:24:33.203Z,12.70
2023-08-07T08:25:33.316Z,12.75
2023-08-07T08:26:33.374Z,12.77
2023-08-07T08:27:33.533Z,12.79
2023-08-07T08:28:33.547Z,12.82
2023-08-07T08:29:33.608Z,12.84
2023-08-07T08:30:33.715Z,12.87
2023-08-07T08:31:33.822Z,12.89
2023-08-07T08:32:33.921Z,12.89
2023-08-07T08:33:33.949Z,12.93
2023-08-07T08:34:34.003Z,12.96
2023-08-07T08:35:34.125Z,12.93
2023-08-07T08:36:34.208Z,12.95
2023-08-07T08:37:34.251Z,12.95
2023-08-07T08:38:34.377Z,12.93
2023-08-07T08:39:34.432Z,12.93
2023-08-07T08:40:34.543Z,12.95
2023-08-07T08:41:34.595Z,12.96
2023-08-07T08:42:34.679Z,12.95
2023-08-07T08:43:34.769Z,12.97
2023-08-07T08:44:34.862Z,12.97
2023-08-07T08:45:35.000Z,12.99
2023-08-07T08:46:35.108Z,13.00
2023-08-07T08:47:35.146Z,13.03
2023-08-07T08:48:35.205Z,13.04
2023-08-07T08:49:35.298Z,13.04
2023-08-07T08:50:35.376Z,13.06
2023-08-07T08:51:35.438Z,13.04
2023-08-07T08:52:35.500Z,13.06
2023-08-07T08:53:35.645Z,13.07
2023-08-07T08:54:35.663Z,13.09
2023-08-07T08:55:35.799Z,13.09
2023-08-07T08:56:35.860Z,13.11
2023-08-07T08:57:35.938Z,13.09
2023-08-07T08:58:36.122Z,13.09
2023-08-07T08:59:36.119Z,13.11
2023-08-07T09:00:36.232Z,13.09
2023-08-07T09:01:36.367Z,13.09
2023-08-07T09:02:36.409Z,13.11
2023-08-07T09:03:36.593Z,13.12
2023-08-07T09:04:36.561Z,13.09
2023-08-07T09:05:36.674Z,13.07
2023-08-07T09:06:36.735Z,13.06
2023-08-07T09:07:36.833Z,13.04
2023-08-07T09:08:36.906Z,13.02
2023-08-07T09:09:37.048Z,13.02
2023-08-07T09:10:37.077Z,12.99
2023-08-07T09:11:37.163Z,12.96
2023-08-07T09:12:37.240Z,12.95
2023-08-07T09:13:37.319Z,12.95
2023-08-07T09:14:37.431Z,12.93
2023-08-07T09:15:37.561Z,12.92
2023-08-07T09:16:37.665Z,12.89
2023-08-07T09:17:37.742Z,12.92
2023-08-07T09:18:37.791Z,12.88
2023-08-07T09:19:37.913Z,12.88
2023-08-07T09:20:37.984Z,12.88
2023-08-07T09:21:38.075Z,12.89
2023-08-07T09:22:38.152Z,12.92
2023-08-07T09:23:38.223Z,12.89
2023-08-07T09:24:38.276Z,12.92
2023-08-07T09:25:38.409Z,12.93
2023-08-07T09:26:38.487Z,12.92
2023-08-07T09:27:38.574Z,12.95
2023-08-07T09:28:38.612Z,12.96
2023-08-07T09:29:38.700Z,12.96
2023-08-07T09:30:38.888Z,12.97
2023-08-07T09:31:38.875Z,12.99
2023-08-07T09:32:39.028Z,12.99
2023-08-07T09:33:39.027Z,13.00
2023-08-07T09:34:39.126Z,13.02
2023-08-07T09:35:39.247Z,13.04
2023-08-07T09:36:39.310Z,13.04
2023-08-07T09:37:41.459Z,13.06
2023-08-07T09:38:39.521Z,13.07
2023-08-07T09:47:04.530Z,12.88
2023-08-07T09:48:05.612Z,12.89
2023-08-07T09:49:05.526Z,12.93
2023-08-07T09:50:05.683Z,12.95
2023-08-07T09:51:05.746Z,12.97
2023-08-07T09:52:05.797Z,13.03
2023-08-07T09:53:05.881Z,13.06
2023-08-07T09:54:05.962Z,13.11
2023-08-07T09:55:06.026Z,13.14
2023-08-07T09:56:06.136Z,13.20
2023-08-07T09:57:06.192Z,13.22
2023-08-07T09:58:06.249Z,13.27
2023-08-07T09:59:06.358Z,13.30
2023-08-07T10:00:06.422Z,13.36
2023-08-07T10:01:06.538Z,13.40
2023-08-07T10:02:06.623Z,13.43
2023-08-07T10:03:06.747Z,13.44
2023-08-07T10:04:06.838Z,13.49
2023-08-07T10:05:06.826Z,13.52
2023-08-07T10:06:06.934Z,13.55
2023-08-07T10:07:06.967Z,13.56
2023-08-07T10:08:07.040Z,13.58
2023-08-07T10:56:45.223Z,13.62
2023-08-07T10:57:46.353Z,13.62
2023-08-07T10:58:46.300Z,13.65
2023-08-07T10:59:46.392Z,13.69
2023-08-07T11:00:46.479Z,13.74
2023-08-07T11:19:07.235Z,13.03
2023-08-07T11:20:08.198Z,13.03
2023-08-07T11:21:08.227Z,13.03
2023-08-07T11:22:08.300Z,13.06
2023-08-07T11:23:08.380Z,13.11
2023-08-07T11:24:08.454Z,13.17
2023-08-07T11:25:08.515Z,13.24
2023-08-07T11:26:08.646Z,13.29
2023-08-07T11:27:08.784Z,13.37
2023-08-07T11:28:08.834Z,13.44
2023-08-07T11:29:08.903Z,13.52
2023-08-07T11:30:08.995Z,13.56
2023-08-07T11:31:09.213Z,13.62
2023-08-07T11:32:10.709Z,13.69
2023-08-07T11:33:09.192Z,13.74
2023-08-07T11:34:09.328Z,13.79
2023-08-07T11:35:09.447Z,13.81
2023-08-07T11:36:09.518Z,13.87
2023-08-07T11:37:09.503Z,13.88
2023-08-07T11:38:09.585Z,13.91
2023-08-07T11:39:09.649Z,13.92
2023-08-07T11:40:09.746Z,13.95
2023-08-07T11:41:09.835Z,13.94
2023-08-07T11:42:09.921Z,13.94
2023-08-07T11:43:09.979Z,13.92
2023-08-07T11:44:10.047Z,13.91
2023-08-07T11:45:10.113Z,13.89
2023-08-07T11:46:10.268Z,13.89
2023-08-07T11:47:10.275Z,13.89
2023-08-07T11:48:10.352Z,13.87
2023-08-07T11:49:10.484Z,13.88
2023-08-07T11:50:10.539Z,13.88
2023-08-07T11:51:10.668Z,13.91
2023-08-07T11:52:10.755Z,13.92
2023-08-07T11:53:10.820Z,13.92
2023-08-07T11:54:10.875Z,13.96
2023-08-07T11:55:10.927Z,13.98
2023-08-07T11:56:11.040Z,14.01
2023-08-07T11:57:11.126Z,14.04
2023-08-07T11:58:11.258Z,14.07
2023-08-07T11:59:11.324Z,14.10
2023-08-07T12:00:11.365Z,14.12
2023-08-07T12:01:11.468Z,14.13
2023-08-07T12:02:11.564Z,14.16
2023-08-07T12:03:11.742Z,14.16
2023-08-07T12:14:15.050Z,13.63
2023-08-07T12:15:16.117Z,13.61
2023-08-07T12:16:16.139Z,13.62
2023-08-07T12:17:16.198Z,13.59
2023-08-07T12:18:16.248Z,13.61
2023-08-07T12:19:16.305Z,13.63
2023-08-07T12:20:16.405Z,13.62
2023-08-07T12:21:16.458Z,13.63
2023-08-07T12:22:16.608Z,13.65
2023-08-07T12:23:16.689Z,13.65
2023-08-07T13:14:55.312Z,13.12
2023-08-07T13:15:56.303Z,13.15
2023-08-07T13:16:56.748Z,13.17
2023-08-07T13:17:56.500Z,13.21
2023-08-07T13:18:56.468Z,13.30
2023-08-07T13:19:56.536Z,13.37
2023-08-07T13:20:56.605Z,13.43
2023-08-07T13:21:56.928Z,13.49
2023-08-07T13:22:56.760Z,13.56
2023-08-07T13:23:56.873Z,13.61
2023-08-07T13:24:56.896Z,13.65
2023-08-07T13:25:56.990Z,13.71
2023-08-07T13:26:57.401Z,13.73
2023-08-07T13:27:57.181Z,13.77
2023-08-07T13:28:57.273Z,13.80
2023-08-07T13:29:57.393Z,13.80
2023-08-07T13:30:57.556Z,13.83
2023-08-07T13:31:57.888Z,13.84
2023-08-07T13:32:57.616Z,13.88
2023-08-07T13:33:57.678Z,13.88
2023-08-07T13:34:57.757Z,13.92
2023-08-07T13:35:57.858Z,13.95
2023-08-07T13:36:57.892Z,13.98
2023-08-07T13:37:58.003Z,14.01
2023-08-07T13:38:58.058Z,14.02
2023-08-07T13:39:58.170Z,14.06
2023-08-07T13:40:58.247Z,14.07
2023-08-07T13:41:58.588Z,14.09
2023-08-07T13:42:58.405Z,14.12
2023-08-07T13:43:58.487Z,14.13
2023-08-07T16:50:19.620Z,13.62
2023-08-07T16:51:20.845Z,13.69
